Otis Angb, MA

7:44 AM EDT on August 25, 2016 (GMT -0400)
Forestdale, Snake Pond Area | | Change Station

Elev 154 ft 41.68 °N, 70.53 °W | Updated 6 minutes ago

Clear
Clear
70.9 °F
Feels Like 70.9 °F
N
2.2
Wind Variable Wind from SW

Today
High -- | Low -- °F
--% Chance of Precip.
Yesterday
High -- | Low -- °F
Precip. -- in
Pressure 30.14 in
Visibility 10.0 miles
Clouds Clear
Dew Point 66 °F
Humidity 85%
Rainfall 0.00 in
Snow Depth Not available.
6:01 AM 7:26 PM
Last Quarter, 46% visible
METAR KFMH 251135Z 22011KT 10SM SKC 23/20 A3014 RMK AO2 PWINO FZRANO TSNO .
Pressure 30.14 in
Visibility 10.0 miles
Clouds Clear
Dew Point 66 °F
Humidity 85%
Rainfall 0.00 in
Snow Depth Not available.
6:01 AM 7:26 PM
Last Quarter, 46% visible
METAR KFMH 251135Z 22011KT 10SM SKC 23/20 A3014 RMK AO2 PWINO FZRANO TSNO .

10-Day Weather Forecast

Almanac

Astronomy

Aug. 25, 2016 Rise Set
Actual Time
Civil Twilight
Nautical Twilight
Astronomical Twilight
Moon
Length of Visible Light
Length of Day
Tomorrow will be .
, % of the Moon is Illuminated

Today's Extremes

State Highs State Lows

Community

WunderPhotos

Upload Photos

1,934,821 photos uploaded!

WunderBlog® & News

Nearby

Air Quality

  Air Quality AQ Index Pollutant
Not available.

Snow Depth

Station Depth Elevation

Earthquake Activity

City Distance Mag. Time & Date
Minimum magnitude displayed is 2.5.

Coastal Water Temperatures

Place Temperature

Stations

Nearby Weather Stations

Station Location Temp. Windchill Dew Point Humidity Wind Precip. Elev Updated Type
                   

Watches & Warnings

There are currently no watches in effect.